sensor_id;sensor_type;location;lat;lon;timestamp;temperature;humidity
3156;DHT22;1588;50.892;7.082;2023-10-31T00:02:19;11.70;99.90
3156;DHT22;1588;50.892;7.082;2023-10-31T00:07:22;11.70;99.90
3156;DHT22;1588;50.892;7.082;2023-10-31T00:12:26;11.70;99.90
3156;DHT22;1588;50.892;7.082;2023-10-31T00:17:29;11.70;99.90
3156;DHT22;1588;50.892;7.082;2023-10-31T00:22:32;11.70;99.90
3156;DHT22;1588;50.892;7.082;2023-10-31T00:27:35;11.70;99.90
3156;DHT22;1588;50.892;7.082;2023-10-31T00:32:38;11.80;99.90
3156;DHT22;1588;50.892;7.082;2023-10-31T00:37:40;11.80;99.90
3156;DHT22;1588;50.892;7.082;2023-10-31T00:42:47;11.70;99.90
3156;DHT22;1588;50.892;7.082;2023-10-31T00:48:10;11.70;99.90
3156;DHT22;1588;50.892;7.082;2023-10-31T00:53:12;11.70;99.90
3156;DHT22;1588;50.892;7.082;2023-10-31T00:58:19;11.70;99.90
3156;DHT22;1588;50.892;7.082;2023-10-31T01:03:22;11.70;99.90
3156;DHT22;1588;50.892;7.082;2023-10-31T01:08:24;11.60;99.90
3156;DHT22;1588;50.892;7.082;2023-10-31T01:13:28;11.60;99.90
3156;DHT22;1588;50.892;7.082;2023-10-31T01:18:31;11.50;99.90
3156;DHT22;1588;50.892;7.082;2023-10-31T01:23:33;11.50;99.90
3156;DHT22;1588;50.892;7.082;2023-10-31T01:28:40;11.50;99.90
3156;DHT22;1588;50.892;7.082;2023-10-31T01:33:42;11.40;99.90
3156;DHT22;1588;50.892;7.082;2023-10-31T01:38:45;11.20;99.90
3156;DHT22;1588;50.892;7.082;2023-10-31T01:43:49;11.10;99.90
3156;DHT22;1588;50.892;7.082;2023-10-31T01:48:54;10.90;99.90
3156;DHT22;1588;50.892;7.082;2023-10-31T01:53:56;10.90;99.90
3156;DHT22;1588;50.892;7.082;2023-10-31T01:59:00;10.90;99.90
3156;DHT22;1588;50.892;7.082;2023-10-31T02:04:03;10.90;99.90
3156;DHT22;1588;50.892;7.082;2023-10-31T02:09:06;10.80;99.90
3156;DHT22;1588;50.892;7.082;2023-10-31T02:14:10;10.60;99.90
3156;DHT22;1588;50.892;7.082;2023-10-31T02:19:14;10.50;99.90
3156;DHT22;1588;50.892;7.082;2023-10-31T02:24:20;10.50;99.90
3156;DHT22;1588;50.892;7.082;2023-10-31T02:29:22;10.40;99.90
3156;DHT22;1588;50.892;7.082;2023-10-31T02:34:24;10.30;99.90
3156;DHT22;1588;50.892;7.082;2023-10-31T02:39:29;10.20;99.90
3156;DHT22;1588;50.892;7.082;2023-10-31T02:44:31;10.10;99.90
3156;DHT22;1588;50.892;7.082;2023-10-31T02:49:33;10.10;99.90
3156;DHT22;1588;50.892;7.082;2023-10-31T02:54:38;10.00;99.90
3156;DHT22;1588;50.892;7.082;2023-10-31T02:59:50;9.70;99.90
3156;DHT22;1588;50.892;7.082;2023-10-31T03:04:57;9.60;99.90
3156;DHT22;1588;50.892;7.082;2023-10-31T03:10:01;9.70;99.90
3156;DHT22;1588;50.892;7.082;2023-10-31T03:15:05;9.80;99.90
3156;DHT22;1588;50.892;7.082;2023-10-31T03:20:08;9.70;99.90
3156;DHT22;1588;50.892;7.082;2023-10-31T03:25:12;9.80;99.90
3156;DHT22;1588;50.892;7.082;2023-10-31T03:30:14;9.80;99.90
3156;DHT22;1588;50.892;7.082;2023-10-31T03:35:20;9.90;99.90
3156;DHT22;1588;50.892;7.082;2023-10-31T03:40:26;10.00;99.90
3156;DHT22;1588;50.892;7.082;2023-10-31T03:45:29;10.10;99.90
3156;DHT22;1588;50.892;7.082;2023-10-31T03:50:32;10.00;99.90
3156;DHT22;1588;50.892;7.082;2023-10-31T03:55:35;10.10;99.90
3156;DHT22;1588;50.892;7.082;2023-10-31T04:00:40;10.00;99.90
3156;DHT22;1588;50.892;7.082;2023-10-31T04:05:43;10.00;99.90
3156;DHT22;1588;50.892;7.082;2023-10-31T04:10:47;10.00;99.90
3156;DHT22;1588;50.892;7.082;2023-10-31T04:15:50;10.10;99.90
3156;DHT22;1588;50.892;7.082;2023-10-31T04:20:52;10.10;99.90
3156;DHT22;1588;50.892;7.082;2023-10-31T04:25:58;10.10;99.90
3156;DHT22;1588;50.892;7.082;2023-10-31T04:31:00;10.10;99.90
3156;DHT22;1588;50.892;7.082;2023-10-31T04:36:04;10.20;99.90
3156;DHT22;1588;50.892;7.082;2023-10-31T04:41:10;10.20;99.90
3156;DHT22;1588;50.892;7.082;2023-10-31T04:46:34;10.30;99.90
3156;DHT22;1588;50.892;7.082;2023-10-31T04:51:37;10.30;99.90
3156;DHT22;1588;50.892;7.082;2023-10-31T04:56:43;10.30;99.90
3156;DHT22;1588;50.892;7.082;2023-10-31T05:01:48;10.30;99.90
3156;DHT22;1588;50.892;7.082;2023-10-31T05:06:51;10.40;99.90
3156;DHT22;1588;50.892;7.082;2023-10-31T05:11:55;10.50;99.90
3156;DHT22;1588;50.892;7.082;2023-10-31T05:16:57;10.60;99.90
3156;DHT22;1588;50.892;7.082;2023-10-31T05:21:59;10.70;99.90
3156;DHT22;1588;50.892;7.082;2023-10-31T05:27:03;10.80;99.90
3156;DHT22;1588;50.892;7.082;2023-10-31T05:32:06;10.80;99.90
3156;DHT22;1588;50.892;7.082;2023-10-31T05:37:08;10.90;99.90
3156;DHT22;1588;50.892;7.082;2023-10-31T05:42:12;10.80;99.90
3156;DHT22;1588;50.892;7.082;2023-10-31T05:47:14;10.80;99.90
3156;DHT22;1588;50.892;7.082;2023-10-31T05:52:16;10.90;99.90
3156;DHT22;1588;50.892;7.082;2023-10-31T05:57:20;10.80;99.90
3156;DHT22;1588;50.892;7.082;2023-10-31T06:02:26;10.70;99.90
3156;DHT22;1588;50.892;7.082;2023-10-31T06:07:28;10.70;99.90
3156;DHT22;1588;50.892;7.082;2023-10-31T06:12:32;10.80;99.90
3156;DHT22;1588;50.892;7.082;2023-10-31T06:17:35;10.70;99.90
3156;DHT22;1588;50.892;7.082;2023-10-31T06:22:37;10.80;99.90
3156;DHT22;1588;50.892;7.082;2023-10-31T06:27:41;10.80;99.90
3156;DHT22;1588;50.892;7.082;2023-10-31T06:32:43;10.90;99.90
3156;DHT22;1588;50.892;7.082;2023-10-31T06:37:46;11.00;99.90
3156;DHT22;1588;50.892;7.082;2023-10-31T06:42:53;11.00;99.90
3156;DHT22;1588;50.892;7.082;2023-10-31T06:47:56;11.00;99.90
3156;DHT22;1588;50.892;7.082;2023-10-31T06:52:58;11.00;99.90
3156;DHT22;1588;50.892;7.082;2023-10-31T06:58:02;11.00;99.90
3156;DHT22;1588;50.892;7.082;2023-10-31T07:03:04;11.00;99.90
3156;DHT22;1588;50.892;7.082;2023-10-31T07:08:10;11.00;99.90
3156;DHT22;1588;50.892;7.082;2023-10-31T07:13:13;11.00;99.90
3156;DHT22;1588;50.892;7.082;2023-10-31T07:18:16;11.10;99.90
3156;DHT22;1588;50.892;7.082;2023-10-31T07:23:18;11.20;99.90
3156;DHT22;1588;50.892;7.082;2023-10-31T07:28:21;11.30;99.90
3156;DHT22;1588;50.892;7.082;2023-10-31T07:33:24;11.30;99.90
3156;DHT22;1588;50.892;7.082;2023-10-31T07:38:26;11.20;99.90
3156;DHT22;1588;50.892;7.082;2023-10-31T07:43:30;11.30;99.90
3156;DHT22;1588;50.892;7.082;2023-10-31T07:48:32;11.20;99.90
3156;DHT22;1588;50.892;7.082;2023-10-31T07:53:34;11.40;99.90
3156;DHT22;1588;50.892;7.082;2023-10-31T07:58:38;11.40;99.90
3156;DHT22;1588;50.892;7.082;2023-10-31T08:03:40;11.50;99.90
3156;DHT22;1588;50.892;7.082;2023-10-31T08:08:42;11.40;99.90
3156;DHT22;1588;50.892;7.082;2023-10-31T08:13:46;11.50;99.90
3156;DHT22;1588;50.892;7.082;2023-10-31T08:18:48;11.60;99.90
3156;DHT22;1588;50.892;7.082;2023-10-31T08:23:50;11.80;99.90
3156;DHT22;1588;50.892;7.082;2023-10-31T08:28:54;11.90;99.90
3156;DHT22;1588;50.892;7.082;2023-10-31T08:33:57;12.60;99.90
3156;DHT22;1588;50.892;7.082;2023-10-31T08:38:59;12.90;99.90
3156;DHT22;1588;50.892;7.082;2023-10-31T08:44:03;12.70;99.90
3156;DHT22;1588;50.892;7.082;2023-10-31T08:49:05;12.30;99.90
3156;DHT22;1588;50.892;7.082;2023-10-31T08:54:07;12.20;99.90
3156;DHT22;1588;50.892;7.082;2023-10-31T08:59:12;12.20;99.90
3156;DHT22;1588;50.892;7.082;2023-10-31T09:04:14;12.20;99.90
3156;DHT22;1588;50.892;7.082;2023-10-31T09:09:16;12.30;99.90
3156;DHT22;1588;50.892;7.082;2023-10-31T09:14:20;12.30;99.90
3156;DHT22;1588;50.892;7.082;2023-10-31T09:19:22;12.30;99.90
3156;DHT22;1588;50.892;7.082;2023-10-31T09:24:25;12.20;99.90
3156;DHT22;1588;50.892;7.082;2023-10-31T09:29:28;12.30;99.90
3156;DHT22;1588;50.892;7.082;2023-10-31T09:34:31;12.30;99.90
3156;DHT22;1588;50.892;7.082;2023-10-31T09:39:33;12.20;99.90
3156;DHT22;1588;50.892;7.082;2023-10-31T09:44:37;12.20;99.90
3156;DHT22;1588;50.892;7.082;2023-10-31T09:49:39;12.40;99.90
3156;DHT22;1588;50.892;7.082;2023-10-31T09:54:42;12.40;99.90
3156;DHT22;1588;50.892;7.082;2023-10-31T09:59:46;12.50;99.90
3156;DHT22;1588;50.892;7.082;2023-10-31T10:04:48;12.50;99.90
3156;DHT22;1588;50.892;7.082;2023-10-31T10:09:51;12.70;99.90
3156;DHT22;1588;50.892;7.082;2023-10-31T10:14:57;12.80;99.90
3156;DHT22;1588;50.892;7.082;2023-10-31T10:20:06;12.90;99.90
3156;DHT22;1588;50.892;7.082;2023-10-31T10:25:11;13.10;99.90
3156;DHT22;1588;50.892;7.082;2023-10-31T10:30:16;13.10;99.90
3156;DHT22;1588;50.892;7.082;2023-10-31T10:35:19;13.20;99.90
3156;DHT22;1588;50.892;7.082;2023-10-31T10:40:23;13.30;99.90
3156;DHT22;1588;50.892;7.082;2023-10-31T10:45:27;13.60;99.90
3156;DHT22;1588;50.892;7.082;2023-10-31T10:50:57;13.90;99.90
3156;DHT22;1588;50.892;7.082;2023-10-31T10:56:00;14.10;99.90
3156;DHT22;1588;50.892;7.082;2023-10-31T11:01:07;14.00;99.90
3156;DHT22;1588;50.892;7.082;2023-10-31T11:06:10;14.00;99.90
3156;DHT22;1588;50.892;7.082;2023-10-31T11:11:14;13.90;99.90
3156;DHT22;1588;50.892;7.082;2023-10-31T11:16:24;13.80;99.90
3156;DHT22;1588;50.892;7.082;2023-10-31T11:21:28;13.80;99.90
3156;DHT22;1588;50.892;7.082;2023-10-31T11:26:31;14.00;99.90
3156;DHT22;1588;50.892;7.082;2023-10-31T11:31:37;14.30;99.90
3156;DHT22;1588;50.892;7.082;2023-10-31T11:36:40;14.70;99.90
3156;DHT22;1588;50.892;7.082;2023-10-31T11:41:48;14.60;99.90
3156;DHT22;1588;50.892;7.082;2023-10-31T11:46:52;14.40;99.90
3156;DHT22;1588;50.892;7.082;2023-10-31T11:51:55;14.50;99.90
3156;DHT22;1588;50.892;7.082;2023-10-31T11:56:57;14.40;99.90
3156;DHT22;1588;50.892;7.082;2023-10-31T12:02:01;14.30;99.90
3156;DHT22;1588;50.892;7.082;2023-10-31T12:07:14;14.40;99.90
3156;DHT22;1588;50.892;7.082;2023-10-31T12:12:17;14.70;99.90
3156;DHT22;1588;50.892;7.082;2023-10-31T12:17:21;15.00;99.90
3156;DHT22;1588;50.892;7.082;2023-10-31T12:22:26;15.20;99.90
3156;DHT22;1588;50.892;7.082;2023-10-31T12:27:42;15.10;99.90
3156;DHT22;1588;50.892;7.082;2023-10-31T12:32:54;15.30;99.90
3156;DHT22;1588;50.892;7.082;2023-10-31T12:37:56;15.40;99.90
3156;DHT22;1588;50.892;7.082;2023-10-31T12:42:59;15.50;99.90
3156;DHT22;1588;50.892;7.082;2023-10-31T12:48:05;15.40;99.90
3156;DHT22;1588;50.892;7.082;2023-10-31T12:53:08;15.10;99.90
3156;DHT22;1588;50.892;7.082;2023-10-31T12:58:20;14.80;99.90
3156;DHT22;1588;50.892;7.082;2023-10-31T13:03:24;14.50;99.90
3156;DHT22;1588;50.892;7.082;2023-10-31T13:08:26;14.30;99.90
3156;DHT22;1588;50.892;7.082;2023-10-31T13:13:28;14.30;99.90
3156;DHT22;1588;50.892;7.082;2023-10-31T13:18:32;14.50;99.90
3156;DHT22;1588;50.892;7.082;2023-10-31T13:23:34;14.60;99.90
3156;DHT22;1588;50.892;7.082;2023-10-31T13:28:39;14.50;99.90
3156;DHT22;1588;50.892;7.082;2023-10-31T13:33:43;14.40;99.90
3156;DHT22;1588;50.892;7.082;2023-10-31T13:38:47;14.20;99.90
3156;DHT22;1588;50.892;7.082;2023-10-31T13:43:50;14.00;99.90
3156;DHT22;1588;50.892;7.082;2023-10-31T13:48:53;14.10;99.90
3156;DHT22;1588;50.892;7.082;2023-10-31T13:53:56;14.00;99.90
3156;DHT22;1588;50.892;7.082;2023-10-31T13:58:58;14.00;99.90
3156;DHT22;1588;50.892;7.082;2023-10-31T14:04:02;13.90;99.90
3156;DHT22;1588;50.892;7.082;2023-10-31T14:09:05;14.00;99.90
3156;DHT22;1588;50.892;7.082;2023-10-31T14:14:08;13.90;99.90
3156;DHT22;1588;50.892;7.082;2023-10-31T14:19:14;13.80;99.90
3156;DHT22;1588;50.892;7.082;2023-10-31T14:24:17;13.80;99.90
3156;DHT22;1588;50.892;7.082;2023-10-31T14:29:19;13.90;99.90
3156;DHT22;1588;50.892;7.082;2023-10-31T14:34:23;14.20;99.90
3156;DHT22;1588;50.892;7.082;2023-10-31T14:39:26;14.30;99.90
3156;DHT22;1588;50.892;7.082;2023-10-31T14:44:28;14.20;99.90
3156;DHT22;1588;50.892;7.082;2023-10-31T14:49:32;14.20;99.90
3156;DHT22;1588;50.892;7.082;2023-10-31T14:54:38;14.20;99.90
3156;DHT22;1588;50.892;7.082;2023-10-31T14:59:43;14.10;99.90
3156;DHT22;1588;50.892;7.082;2023-10-31T15:04:46;14.10;99.90
3156;DHT22;1588;50.892;7.082;2023-10-31T15:09:52;14.00;99.90
3156;DHT22;1588;50.892;7.082;2023-10-31T15:14:54;13.90;99.90
3156;DHT22;1588;50.892;7.082;2023-10-31T15:19:58;13.70;99.90
3156;DHT22;1588;50.892;7.082;2023-10-31T15:25:01;13.60;99.90
3156;DHT22;1588;50.892;7.082;2023-10-31T15:30:05;13.50;99.90
3156;DHT22;1588;50.892;7.082;2023-10-31T15:35:10;13.50;99.90
3156;DHT22;1588;50.892;7.082;2023-10-31T15:40:13;13.40;99.90
3156;DHT22;1588;50.892;7.082;2023-10-31T15:45:15;13.30;99.90
3156;DHT22;1588;50.892;7.082;2023-10-31T15:50:19;13.20;99.90
3156;DHT22;1588;50.892;7.082;2023-10-31T15:55:21;13.10;99.90
3156;DHT22;1588;50.892;7.082;2023-10-31T16:00:23;13.10;99.90
3156;DHT22;1588;50.892;7.082;2023-10-31T16:05:27;13.10;99.90
3156;DHT22;1588;50.892;7.082;2023-10-31T16:10:34;13.00;99.90
3156;DHT22;1588;50.892;7.082;2023-10-31T16:15:36;12.90;99.90
3156;DHT22;1588;50.892;7.082;2023-10-31T16:20:39;13.00;99.90
3156;DHT22;1588;50.892;7.082;2023-10-31T16:25:43;12.80;99.90
3156;DHT22;1588;50.892;7.082;2023-10-31T16:30:46;12.60;99.90
3156;DHT22;1588;50.892;7.082;2023-10-31T16:35:50;12.50;99.90
3156;DHT22;1588;50.892;7.082;2023-10-31T16:40:52;12.40;99.90
3156;DHT22;1588;50.892;7.082;2023-10-31T16:45:55;12.40;99.90
3156;DHT22;1588;50.892;7.082;2023-10-31T16:50:58;12.30;99.90
3156;DHT22;1588;50.892;7.082;2023-10-31T16:56:00;12.20;99.90
3156;DHT22;1588;50.892;7.082;2023-10-31T17:01:03;12.20;99.90
3156;DHT22;1588;50.892;7.082;2023-10-31T17:06:08;12.20;99.90
3156;DHT22;1588;50.892;7.082;2023-10-31T17:11:10;12.10;99.90
3156;DHT22;1588;50.892;7.082;2023-10-31T17:16:13;12.00;99.90
3156;DHT22;1588;50.892;7.082;2023-10-31T17:21:16;12.00;99.90
3156;DHT22;1588;50.892;7.082;2023-10-31T17:26:19;12.00;99.90
3156;DHT22;1588;50.892;7.082;2023-10-31T17:31:21;12.00;99.90
3156;DHT22;1588;50.892;7.082;2023-10-31T17:36:24;12.00;99.90
3156;DHT22;1588;50.892;7.082;2023-10-31T17:41:27;12.00;99.90
3156;DHT22;1588;50.892;7.082;2023-10-31T17:46:29;12.00;99.90
3156;DHT22;1588;50.892;7.082;2023-10-31T17:51:39;12.00;99.90
3156;DHT22;1588;50.892;7.082;2023-10-31T17:56:41;11.90;99.90
3156;DHT22;1588;50.892;7.082;2023-10-31T18:01:43;11.80;99.90
3156;DHT22;1588;50.892;7.082;2023-10-31T18:06:47;11.80;99.90
3156;DHT22;1588;50.892;7.082;2023-10-31T18:11:49;11.70;99.90
3156;DHT22;1588;50.892;7.082;2023-10-31T18:16:53;11.60;99.90
3156;DHT22;1588;50.892;7.082;2023-10-31T18:21:59;11.70;99.90
3156;DHT22;1588;50.892;7.082;2023-10-31T18:27:03;11.60;99.90
3156;DHT22;1588;50.892;7.082;2023-10-31T18:32:07;11.70;99.90
3156;DHT22;1588;50.892;7.082;2023-10-31T18:37:10;11.70;99.90
3156;DHT22;1588;50.892;7.082;2023-10-31T18:42:13;11.80;99.90
3156;DHT22;1588;50.892;7.082;2023-10-31T18:47:15;11.70;99.90
3156;DHT22;1588;50.892;7.082;2023-10-31T18:52:19;11.60;99.90
3156;DHT22;1588;50.892;7.082;2023-10-31T18:57:21;11.60;99.90
3156;DHT22;1588;50.892;7.082;2023-10-31T19:02:25;11.60;99.90
3156;DHT22;1588;50.892;7.082;2023-10-31T19:07:29;11.60;99.90
3156;DHT22;1588;50.892;7.082;2023-10-31T19:12:31;11.60;99.90
3156;DHT22;1588;50.892;7.082;2023-10-31T19:17:33;11.60;99.90
3156;DHT22;1588;50.892;7.082;2023-10-31T19:22:37;11.60;99.90
3156;DHT22;1588;50.892;7.082;2023-10-31T19:27:39;11.60;99.90
3156;DHT22;1588;50.892;7.082;2023-10-31T19:32:41;11.60;99.90
3156;DHT22;1588;50.892;7.082;2023-10-31T19:37:45;11.70;99.90
3156;DHT22;1588;50.892;7.082;2023-10-31T19:42:48;11.60;99.90
3156;DHT22;1588;50.892;7.082;2023-10-31T19:47:50;11.60;99.90
3156;DHT22;1588;50.892;7.082;2023-10-31T19:52:54;11.60;99.90
3156;DHT22;1588;50.892;7.082;2023-10-31T19:57:56;11.60;99.90
3156;DHT22;1588;50.892;7.082;2023-10-31T20:02:58;11.60;99.90
3156;DHT22;1588;50.892;7.082;2023-10-31T20:08:04;11.60;99.90
3156;DHT22;1588;50.892;7.082;2023-10-31T20:13:06;11.50;99.90
3156;DHT22;1588;50.892;7.082;2023-10-31T20:18:08;11.60;99.90
3156;DHT22;1588;50.892;7.082;2023-10-31T20:23:12;11.50;99.90
3156;DHT22;1588;50.892;7.082;2023-10-31T20:28:14;11.50;99.90
3156;DHT22;1588;50.892;7.082;2023-10-31T20:33:17;11.50;99.90
3156;DHT22;1588;50.892;7.082;2023-10-31T20:38:20;11.40;99.90
3156;DHT22;1588;50.892;7.082;2023-10-31T20:43:23;11.40;99.90
3156;DHT22;1588;50.892;7.082;2023-10-31T20:48:25;11.40;99.90
3156;DHT22;1588;50.892;7.082;2023-10-31T20:53:28;11.40;99.90
3156;DHT22;1588;50.892;7.082;2023-10-31T20:58:30;11.50;99.90
3156;DHT22;1588;50.892;7.082;2023-10-31T21:03:33;11.50;99.90
3156;DHT22;1588;50.892;7.082;2023-10-31T21:08:36;11.50;99.90
3156;DHT22;1588;50.892;7.082;2023-10-31T21:13:39;11.50;99.90
3156;DHT22;1588;50.892;7.082;2023-10-31T21:18:41;11.60;99.90
3156;DHT22;1588;50.892;7.082;2023-10-31T21:23:45;11.50;99.90
3156;DHT22;1588;50.892;7.082;2023-10-31T21:28:47;11.50;99.90
3156;DHT22;1588;50.892;7.082;2023-10-31T21:33:49;11.50;99.90
3156;DHT22;1588;50.892;7.082;2023-10-31T21:38:53;11.50;99.90
3156;DHT22;1588;50.892;7.082;2023-10-31T21:43:56;11.60;99.90
3156;DHT22;1588;50.892;7.082;2023-10-31T21:49:00;11.60;99.90
3156;DHT22;1588;50.892;7.082;2023-10-31T21:54:03;11.60;99.90
3156;DHT22;1588;50.892;7.082;2023-10-31T21:59:06;11.60;99.90
3156;DHT22;1588;50.892;7.082;2023-10-31T22:04:08;11.60;99.90
3156;DHT22;1588;50.892;7.082;2023-10-31T22:09:11;11.60;99.90
3156;DHT22;1588;50.892;7.082;2023-10-31T22:14:14;11.60;99.90
3156;DHT22;1588;50.892;7.082;2023-10-31T22:19:16;11.60;99.90
3156;DHT22;1588;50.892;7.082;2023-10-31T22:24:19;11.60;99.90
3156;DHT22;1588;50.892;7.082;2023-10-31T22:29:22;11.60;99.90
3156;DHT22;1588;50.892;7.082;2023-10-31T22:34:24;11.60;99.90
3156;DHT22;1588;50.892;7.082;2023-10-31T22:39:28;11.60;99.90
3156;DHT22;1588;50.892;7.082;2023-10-31T22:44:30;11.50;99.90
3156;DHT22;1588;50.892;7.082;2023-10-31T22:49:32;11.50;99.90
3156;DHT22;1588;50.892;7.082;2023-10-31T22:54:36;11.50;99.90
3156;DHT22;1588;50.892;7.082;2023-10-31T22:59:38;11.40;99.90
3156;DHT22;1588;50.892;7.082;2023-10-31T23:04:40;11.50;99.90
3156;DHT22;1588;50.892;7.082;2023-10-31T23:09:44;11.50;99.90
3156;DHT22;1588;50.892;7.082;2023-10-31T23:14:46;11.50;99.90
3156;DHT22;1588;50.892;7.082;2023-10-31T23:19:49;11.50;99.90
3156;DHT22;1588;50.892;7.082;2023-10-31T23:24:55;11.50;99.90
3156;DHT22;1588;50.892;7.082;2023-10-31T23:29:57;11.40;99.90
3156;DHT22;1588;50.892;7.082;2023-10-31T23:34:59;11.40;99.90
3156;DHT22;1588;50.892;7.082;2023-10-31T23:40:04;11.40;99.90
3156;DHT22;1588;50.892;7.082;2023-10-31T23:45:07;11.40;99.90
3156;DHT22;1588;50.892;7.082;2023-10-31T23:50:09;11.30;99.90
3156;DHT22;1588;50.892;7.082;2023-10-31T23:55:14;11.30;99.90
